Time,TemperatureF,DewpointF,PressureIn,WindDirection,WindDirectionDegrees,WindSpeedMPH,WindSpeedGustMPH,Humidity,HourlyPrecipIn,Conditions,Clouds,dailyrainin,SoftwareType,DateUTC
2013-01-17 00:04:00,47.0,47.0,30.01,SSW,198,2.0,4.0,99,0.01,,,0.65,,2013-01-17 05:04:00,
2013-01-17 00:12:00,47.0,47.0,30.01,SSW,198,2.0,4.0,99,0.01,,,0.65,,2013-01-17 05:12:00,
2013-01-17 00:22:00,47.0,47.0,29.99,SSW,198,0.0,1.0,99,0.03,,,0.67,,2013-01-17 05:22:00,
2013-01-17 00:33:00,47.0,47.0,30.01,South,183,2.0,4.0,99,0.03,,,0.68,,2013-01-17 05:33:00,
2013-01-17 00:42:00,47.0,47.0,30.01,South,183,2.0,4.0,99,0.03,,,0.68,,2013-01-17 05:42:00,
2013-01-17 00:53:00,47.0,47.0,29.98,NE,53,0.0,3.0,99,0.03,,,0.66,,2013-01-17 05:53:00,
2013-01-17 01:02:00,47.0,47.0,30.01,NNW,346,0.0,2.0,99,0.03,,,0.66,,2013-01-17 06:02:00,
2013-01-17 01:12:00,47.0,47.0,29.99,East,89,2.0,3.0,99,0.01,,,0.66,,2013-01-17 06:12:00,
2013-01-17 01:22:00,47.0,47.0,29.99,East,89,2.0,3.0,99,0.01,,,0.66,,2013-01-17 06:22:00,
2013-01-17 01:32:00,47.0,47.0,29.98,ESE,113,3.0,4.0,99,0.00,,,0.66,,2013-01-17 06:32:00,
2013-01-17 01:42:00,47.0,47.0,29.98,ESE,113,3.0,4.0,99,0.00,,,0.66,,2013-01-17 06:42:00,
2013-01-17 01:53:00,47.0,47.0,29.99,SSW,197,0.0,2.0,99,0.01,,,0.62,,2013-01-17 06:53:00,
2013-01-17 02:02:00,47.0,47.0,30.00,North,360,0.0,2.0,99,0.01,,,0.62,,2013-01-17 07:02:00,
2013-01-17 02:12:00,47.0,47.0,30.00,North,360,0.0,2.0,99,0.01,,,0.62,,2013-01-17 07:12:00,
2013-01-17 02:22:00,47.0,47.0,29.99,ENE,62,0.0,3.0,99,0.01,,,0.62,,2013-01-17 07:22:00,
2013-01-17 02:33:00,47.0,47.0,30.00,ENE,62,0.0,1.0,99,0.01,,,0.62,,2013-01-17 07:33:00,
2013-01-17 02:42:00,47.0,47.0,30.00,ENE,62,0.0,1.0,99,0.01,,,0.62,,2013-01-17 07:42:00,
2013-01-17 02:52:00,47.0,47.0,30.00,ENE,59,0.0,3.0,99,0.02,,,0.60,,2013-01-17 07:52:00,
2013-01-17 03:02:00,47.0,47.0,30.01,North,355,1.0,2.0,99,0.02,,,0.60,,2013-01-17 08:02:00,
2013-01-17 03:12:00,47.0,47.0,30.01,North,355,1.0,2.0,99,0.02,,,0.60,,2013-01-17 08:12:00,
2013-01-17 03:22:00,47.0,47.0,30.01,North,355,1.0,2.0,99,0.02,,,0.60,,2013-01-17 08:22:00,
2013-01-17 03:32:00,48.0,48.0,30.01,NE,48,1.0,2.0,99,0.02,,,0.60,,2013-01-17 08:32:00,
2013-01-17 03:43:00,48.0,48.0,30.01,NE,48,1.0,2.0,99,0.02,,,0.60,,2013-01-17 08:43:00,
2013-01-17 03:52:00,48.0,48.0,30.01,NW,311,0.0,2.0,99,0.00,,,0.56,,2013-01-17 08:52:00,
2013-01-17 04:03:00,48.0,48.0,30.01,North,5,0.0,2.0,99,0.01,,,0.57,,2013-01-17 09:03:00,
2013-01-17 04:12:00,48.0,48.0,30.01,North,5,0.0,2.0,99,0.01,,,0.57,,2013-01-17 09:12:00,
2013-01-17 04:22:00,48.0,48.0,30.02,NNW,348,1.0,2.0,99,0.02,,,0.58,,2013-01-17 09:22:00,
2013-01-17 04:32:00,48.0,48.0,29.99,NNE,26,1.0,5.0,99,0.04,,,0.60,,2013-01-17 09:32:00,
2013-01-17 04:42:00,48.0,48.0,29.99,NNE,26,1.0,5.0,99,0.04,,,0.60,,2013-01-17 09:42:00,
2013-01-17 04:53:00,48.0,48.0,29.99,NE,42,1.0,2.0,99,0.04,,,0.54,,2013-01-17 09:53:00,
2013-01-17 05:02:00,48.0,48.0,29.99,NW,325,0.0,3.0,99,0.03,,,0.54,,2013-01-17 10:02:00,
2013-01-17 05:12:00,48.0,48.0,29.99,NW,325,0.0,3.0,99,0.03,,,0.54,,2013-01-17 10:12:00,
2013-01-17 05:22:00,48.0,48.0,29.99,ENE,59,0.0,2.0,99,0.04,,,0.55,,2013-01-17 10:22:00,
2013-01-17 05:32:00,48.0,47.0,29.98,NE,55,0.0,4.0,98,0.01,,,0.55,,2013-01-17 10:32:00,
2013-01-17 05:42:00,48.0,47.0,29.98,NE,55,0.0,4.0,98,0.01,,,0.55,,2013-01-17 10:42:00,
2013-01-17 05:52:00,48.0,47.0,29.98,ENE,65,0.0,3.0,98,0.01,,,0.54,,2013-01-17 10:52:00,
2013-01-17 06:03:00,48.0,47.0,29.99,ENE,65,0.0,1.0,98,0.01,,,0.54,,2013-01-17 11:03:00,
2013-01-17 06:12:00,48.0,47.0,29.99,ENE,65,0.0,1.0,98,0.01,,,0.54,,2013-01-17 11:12:00,
2013-01-17 06:22:00,47.0,46.0,29.99,North,360,1.0,2.0,98,0.00,,,0.54,,2013-01-17 11:22:00,
2013-01-17 06:33:00,47.0,46.0,29.99,North,360,1.0,2.0,98,0.00,,,0.54,,2013-01-17 11:33:00,
2013-01-17 06:43:00,47.0,46.0,29.99,North,360,1.0,2.0,98,0.00,,,0.54,,2013-01-17 11:43:00,
2013-01-17 06:53:00,47.0,46.0,30.01,NE,46,1.0,4.0,97,0.01,,,0.53,,2013-01-17 11:53:00,
2013-01-17 07:02:00,47.0,46.0,30.02,NNW,342,1.0,3.0,96,0.02,,,0.54,,2013-01-17 12:02:00,
2013-01-17 07:12:00,47.0,46.0,30.02,NNW,342,1.0,3.0,96,0.02,,,0.54,,2013-01-17 12:12:00,
2013-01-17 07:23:00,47.0,46.0,30.01,ENE,76,3.0,7.0,96,0.03,,,0.55,,2013-01-17 12:23:00,
2013-01-17 07:33:00,46.0,45.0,30.01,North,355,2.0,4.0,95,0.04,,,0.56,,2013-01-17 12:33:00,
2013-01-17 07:43:00,46.0,45.0,30.01,North,355,2.0,4.0,95,0.04,,,0.56,,2013-01-17 12:43:00,
2013-01-17 07:53:00,46.0,45.0,30.03,NNE,22,1.0,3.0,95,0.03,,,0.56,,2013-01-17 12:53:00,
2013-01-17 08:03:00,45.0,44.0,30.04,NNE,24,0.0,2.0,96,0.02,,,0.56,,2013-01-17 13:03:00,
2013-01-17 08:12:00,45.0,44.0,30.04,NNE,24,0.0,2.0,96,0.02,,,0.56,,2013-01-17 13:12:00,
2013-01-17 08:23:00,45.0,44.0,30.03,NE,36,2.0,8.0,96,0.01,,,0.56,,2013-01-17 13:23:00,
2013-01-17 08:33:00,45.0,44.0,30.05,NE,43,2.0,3.0,96,0.03,,,0.59,,2013-01-17 13:33:00,
2013-01-17 08:43:00,45.0,44.0,30.05,NE,43,2.0,3.0,96,0.03,,,0.59,,2013-01-17 13:43:00,
2013-01-17 08:53:00,44.0,43.0,30.04,ENE,61,3.0,6.0,95,0.07,,,0.62,,2013-01-17 13:53:00,
2013-01-17 09:03:00,44.0,43.0,30.03,ENE,67,3.0,8.0,96,0.08,,,0.63,,2013-01-17 14:03:00,
2013-01-17 09:12:00,44.0,43.0,30.03,ENE,67,3.0,8.0,96,0.08,,,0.63,,2013-01-17 14:12:00,
2013-01-17 09:23:00,44.0,43.0,30.03,ENE,61,2.0,9.0,96,0.08,,,0.63,,2013-01-17 14:23:00,
2013-01-17 09:33:00,44.0,43.0,30.04,NE,38,2.0,9.0,96,0.05,,,0.63,,2013-01-17 14:33:00,
2013-01-17 09:43:00,44.0,43.0,30.04,NE,38,2.0,9.0,96,0.05,,,0.63,,2013-01-17 14:43:00,
2013-01-17 09:53:00,43.0,42.0,30.06,North,349,2.0,3.0,95,0.04,,,0.47,,2013-01-17 14:53:00,
2013-01-17 10:03:00,43.0,42.0,30.06,NE,46,1.0,3.0,95,0.04,,,0.47,,2013-01-17 15:03:00,
2013-01-17 10:12:00,43.0,42.0,30.06,NE,46,1.0,3.0,95,0.04,,,0.47,,2013-01-17 15:12:00,
2013-01-17 10:23:00,43.0,42.0,30.05,NNE,23,2.0,5.0,96,0.04,,,0.48,,2013-01-17 15:23:00,
2013-01-17 10:33:00,43.0,42.0,30.07,ENE,58,2.0,4.0,95,0.03,,,0.48,,2013-01-17 15:33:00,
2013-01-17 10:43:00,43.0,42.0,30.07,ENE,58,2.0,4.0,95,0.03,,,0.48,,2013-01-17 15:43:00,
2013-01-17 10:53:00,43.0,42.0,30.06,NNE,33,2.0,4.0,95,0.04,,,0.32,,2013-01-17 15:53:00,
2013-01-17 11:03:00,42.0,41.0,30.06,North,5,2.0,7.0,95,0.06,,,0.35,,2013-01-17 16:03:00,
2013-01-17 11:12:00,42.0,41.0,30.06,North,5,2.0,7.0,95,0.06,,,0.35,,2013-01-17 16:12:00,
2013-01-17 11:23:00,42.0,41.0,30.06,North,355,0.0,3.0,96,0.11,,,0.41,,2013-01-17 16:23:00,
2013-01-17 11:33:00,42.0,41.0,30.04,NE,34,3.0,4.0,97,0.17,,,0.47,,2013-01-17 16:33:00,
2013-01-17 11:43:00,42.0,41.0,30.04,NE,34,3.0,4.0,97,0.17,,,0.47,,2013-01-17 16:43:00,
2013-01-17 11:53:00,42.0,41.0,30.03,NNE,22,2.0,7.0,97,0.16,,,0.47,,2013-01-17 16:53:00,
2013-01-17 12:03:00,42.0,41.0,30.03,North,360,2.0,5.0,97,0.15,,,0.49,,2013-01-17 17:03:00,
2013-01-17 12:13:00,42.0,41.0,30.03,North,360,2.0,5.0,97,0.15,,,0.49,,2013-01-17 17:13:00,
2013-01-17 12:23:00,42.0,41.0,30.03,ENE,62,2.0,4.0,97,0.13,,,0.53,,2013-01-17 17:23:00,
2013-01-17 12:33:00,42.0,41.0,30.03,ENE,66,7.0,12.0,96,0.09,,,0.55,,2013-01-17 17:33:00,
2013-01-17 12:43:00,42.0,41.0,30.03,ENE,66,7.0,12.0,96,0.09,,,0.55,,2013-01-17 17:43:00,
2013-01-17 12:53:00,41.0,40.0,30.01,East,82,6.0,15.0,96,0.09,,,0.57,,2013-01-17 17:53:00,
2013-01-17 13:04:00,40.0,39.0,30.00,ENE,77,6.0,14.0,95,0.08,,,0.57,,2013-01-17 18:04:00,
2013-01-17 13:12:00,40.0,39.0,30.00,ENE,77,6.0,14.0,95,0.08,,,0.57,,2013-01-17 18:12:00,
2013-01-17 13:23:00,40.0,38.0,29.98,ENE,72,8.0,15.0,94,0.04,,,0.57,,2013-01-17 18:23:00,
2013-01-17 13:33:00,40.0,38.0,29.98,NE,40,3.0,17.0,93,0.03,,,0.58,,2013-01-17 18:33:00,
2013-01-17 13:43:00,40.0,38.0,29.98,NE,40,3.0,17.0,93,0.03,,,0.58,,2013-01-17 18:43:00,
2013-01-17 13:53:00,39.0,37.0,29.99,NE,35,2.0,12.0,93,0.02,,,0.59,,2013-01-17 18:53:00,
2013-01-17 14:03:00,39.0,37.0,30.00,North,11,2.0,5.0,94,0.05,,,0.62,,2013-01-17 19:03:00,
2013-01-17 14:13:00,39.0,37.0,30.00,North,11,2.0,5.0,94,0.05,,,0.62,,2013-01-17 19:13:00,
2013-01-17 14:23:00,39.0,38.0,29.99,North,5,3.0,5.0,96,0.11,,,0.68,,2013-01-17 19:23:00,
2013-01-17 14:33:00,38.0,37.0,29.98,NNE,18,3.0,7.0,96,0.14,,,0.72,,2013-01-17 19:33:00,
2013-01-17 14:43:00,38.0,37.0,29.98,NNE,18,3.0,7.0,96,0.14,,,0.72,,2013-01-17 19:43:00,
2013-01-17 14:53:00,38.0,37.0,29.96,NNW,348,2.0,7.0,96,0.15,,,0.74,,2013-01-17 19:53:00,
2013-01-17 15:03:00,38.0,37.0,29.96,NNW,331,2.0,6.0,97,0.14,,,0.76,,2013-01-17 20:03:00,
2013-01-17 15:12:00,38.0,37.0,29.96,NNW,331,2.0,6.0,97,0.14,,,0.76,,2013-01-17 20:12:00,
2013-01-17 15:23:00,38.0,37.0,29.98,North,5,2.0,3.0,97,0.11,,,0.79,,2013-01-17 20:23:00,
2013-01-17 15:33:00,38.0,37.0,29.98,NNE,23,2.0,7.0,97,0.13,,,0.85,,2013-01-17 20:33:00,
2013-01-17 15:43:00,38.0,37.0,29.98,NNE,23,2.0,7.0,97,0.13,,,0.85,,2013-01-17 20:43:00,
2013-01-17 15:54:00,37.0,36.0,29.99,North,9,3.0,7.0,97,0.22,,,0.96,,2013-01-17 20:54:00,
2013-01-17 16:03:00,37.0,36.0,29.99,NNE,12,2.0,5.0,97,0.26,,,1.02,,2013-01-17 21:03:00,
2013-01-17 16:13:00,37.0,36.0,29.99,NNE,12,2.0,5.0,97,0.26,,,1.02,,2013-01-17 21:13:00,
2013-01-17 16:23:00,37.0,36.0,30.00,NNE,29,2.0,4.0,97,0.27,,,1.05,,2013-01-17 21:23:00,
2013-01-17 16:34:00,37.0,36.0,29.99,North,11,2.0,6.0,97,0.23,,,1.13,,2013-01-17 21:34:00,
2013-01-17 16:43:00,37.0,36.0,29.99,North,11,2.0,6.0,97,0.23,,,1.13,,2013-01-17 21:43:00,
2013-01-17 16:53:00,37.0,36.0,29.98,NE,48,3.0,8.0,97,0.20,,,1.16,,2013-01-17 21:53:00,
2013-01-17 17:04:00,37.0,36.0,30.00,NNE,30,4.0,9.0,96,0.20,,,1.22,,2013-01-17 22:04:00,
2013-01-17 17:12:00,37.0,36.0,30.00,NNE,30,4.0,9.0,96,0.20,,,1.22,,2013-01-17 22:12:00,
2013-01-17 17:23:00,37.0,36.0,29.99,NE,49,3.0,7.0,96,0.19,,,1.24,,2013-01-17 22:23:00,
2013-01-17 17:33:00,37.0,36.0,30.02,NNE,12,2.0,10.0,96,0.16,,,1.29,,2013-01-17 22:33:00,
2013-01-17 17:43:00,37.0,36.0,30.02,NNE,12,2.0,10.0,96,0.16,,,1.29,,2013-01-17 22:43:00,
2013-01-17 17:52:00,37.0,36.0,30.01,North,355,2.0,9.0,96,0.16,,,1.32,,2013-01-17 22:52:00,
2013-01-17 18:03:00,37.0,36.0,29.99,ENE,57,4.0,8.0,96,0.15,,,1.37,,2013-01-17 23:03:00,
2013-01-17 18:12:00,37.0,36.0,29.99,ENE,57,4.0,8.0,96,0.15,,,1.37,,2013-01-17 23:12:00,
2013-01-17 18:23:00,37.0,36.0,30.03,ENE,69,2.0,8.0,95,0.16,,,1.42,,2013-01-17 23:23:00,
2013-01-17 18:33:00,37.0,36.0,30.02,NNE,30,3.0,6.0,95,0.18,,,1.46,,2013-01-17 23:33:00,
2013-01-17 18:43:00,37.0,36.0,30.02,NNE,30,3.0,6.0,95,0.18,,,1.46,,2013-01-17 23:43:00,
2013-01-17 18:53:00,36.0,35.0,30.03,North,360,3.0,7.0,96,0.23,,,1.55,,2013-01-17 23:53:00,
2013-01-17 19:03:00,36.0,35.0,30.05,NW,321,4.0,7.0,95,0.27,,,1.64,,2013-01-18 00:03:00,
2013-01-17 19:12:00,36.0,35.0,30.05,NW,321,4.0,7.0,95,0.27,,,1.64,,2013-01-18 00:12:00,
2013-01-17 19:23:00,36.0,35.0,30.05,NW,321,4.0,7.0,95,0.27,,,1.64,,2013-01-18 00:23:00,
2013-01-17 19:32:00,36.0,35.0,30.05,NW,321,4.0,7.0,95,0.27,,,1.64,,2013-01-18 00:32:00,
2013-01-17 19:42:00,33.0,32.0,30.03,NNW,347,1.0,3.0,96,0.19,,,1.68,,2013-01-18 00:42:00,
2013-01-17 19:53:00,33.0,32.0,30.03,ENE,62,1.0,2.0,96,0.15,,,1.68,,2013-01-18 00:53:00,
2013-01-17 20:03:00,33.0,32.0,30.05,ENE,75,0.0,3.0,97,0.06,,,1.70,,2013-01-18 01:03:00,
2013-01-17 20:13:00,33.0,32.0,30.05,ENE,75,0.0,3.0,97,0.06,,,1.70,,2013-01-18 01:13:00,
2013-01-17 20:23:00,32.0,31.0,30.04,ENE,74,0.0,1.0,97,0.05,,,1.73,,2013-01-18 01:23:00,
2013-01-17 20:33:00,33.0,32.0,30.03,NNE,26,0.0,3.0,97,0.08,,,1.76,,2013-01-18 01:33:00,
2013-01-17 20:43:00,33.0,32.0,30.03,NNE,26,0.0,3.0,97,0.08,,,1.76,,2013-01-18 01:43:00,
2013-01-17 20:53:00,33.0,32.0,30.03,NE,55,1.0,2.0,97,0.10,,,1.79,,2013-01-18 01:53:00,
2013-01-17 21:03:00,33.0,32.0,30.03,NE,55,1.0,2.0,97,0.10,,,1.79,,2013-01-18 02:03:00,
2013-01-17 21:12:00,33.0,32.0,30.03,NE,55,1.0,2.0,97,0.10,,,1.79,,2013-01-18 02:12:00,
2013-01-17 21:22:00,33.0,32.0,30.04,SSW,213,0.0,2.0,98,0.09,,,1.82,,2013-01-18 02:22:00,
2013-01-17 21:33:00,33.0,32.0,30.07,SW,228,2.0,2.0,98,0.08,,,1.83,,2013-01-18 02:33:00,
2013-01-17 21:43:00,33.0,32.0,30.07,SW,228,2.0,2.0,98,0.08,,,1.83,,2013-01-18 02:43:00,
2013-01-17 21:53:00,33.0,32.0,30.12,WNW,296,0.0,3.0,98,0.05,,,1.84,,2013-01-18 02:53:00,
2013-01-17 22:02:00,33.0,32.0,30.13,WNW,288,0.0,2.0,98,0.02,,,1.84,,2013-01-18 03:02:00,
2013-01-17 22:12:00,33.0,32.0,30.13,WNW,288,0.0,2.0,98,0.02,,,1.84,,2013-01-18 03:12:00,
2013-01-17 22:23:00,33.0,32.0,30.13,South,174,0.0,2.0,98,0.02,,,1.84,,2013-01-18 03:23:00,
2013-01-17 22:33:00,33.0,32.0,30.15,South,174,0.0,2.0,98,0.02,,,1.85,,2013-01-18 03:33:00,
2013-01-17 22:42:00,33.0,32.0,30.15,South,174,0.0,2.0,98,0.02,,,1.85,,2013-01-18 03:42:00,
2013-01-17 22:52:00,33.0,32.0,30.16,SW,236,2.0,3.0,98,0.01,,,1.85,,2013-01-18 03:52:00,
2013-01-17 23:02:00,33.0,32.0,30.16,WSW,252,0.0,0.0,98,0.01,,,1.85,,2013-01-18 04:02:00,
2013-01-17 23:12:00,33.0,32.0,30.16,WSW,252,0.0,0.0,98,0.01,,,1.85,,2013-01-18 04:12:00,
2013-01-17 23:22:00,33.0,32.0,30.19,WSW,252,0.0,2.0,98,0.01,,,1.86,,2013-01-18 04:22:00,
2013-01-17 23:33:00,33.0,32.0,30.19,WSW,253,1.0,2.0,98,0.01,,,1.86,,2013-01-18 04:33:00,
2013-01-17 23:42:00,33.0,32.0,30.19,WSW,253,1.0,2.0,98,0.01,,,1.86,,2013-01-18 04:42:00,
2013-01-17 23:53:00,33.0,32.0,30.19,NW,313,2.0,3.0,98,0.01,,,1.84,,2013-01-18 04:53:00,